createdAt,value
2017-10-28T00:00:23.744Z,59.83
2017-10-28T00:01:04.193Z,59.74
2017-10-28T00:01:44.661Z,59.64
2017-10-28T00:02:25.124Z,60.03
2017-10-28T00:03:05.566Z,59.83
2017-10-28T00:03:46.016Z,59.74
2017-10-28T00:04:26.477Z,59.83
2017-10-28T00:05:06.938Z,59.67
2017-10-28T00:05:47.395Z,59.77
2017-10-28T00:06:27.852Z,59.83
2017-10-28T00:07:08.309Z,59.86
2017-10-28T00:07:48.817Z,59.83
2017-10-28T00:08:29.250Z,59.83
2017-10-28T00:09:09.745Z,59.93
2017-10-28T00:09:50.202Z,60.13
2017-10-28T00:10:30.658Z,60.06
2017-10-28T00:11:11.123Z,60.13
2017-10-28T00:11:51.580Z,60.03
2017-10-28T00:12:32.040Z,60.03
2017-10-28T00:13:12.494Z,60.03
2017-10-28T00:13:52.932Z,59.83
2017-10-28T00:14:33.383Z,59.93
2017-10-28T00:15:13.831Z,59.64
2017-10-28T00:15:54.286Z,59.67
2017-10-28T00:16:34.735Z,59.64
2017-10-28T00:17:15.191Z,59.64
2017-10-28T00:17:55.665Z,59.55
2017-10-28T00:18:36.104Z,59.74
2017-10-28T00:19:16.559Z,59.74
2017-10-28T00:19:57.012Z,59.35
2017-10-28T00:20:37.475Z,59.64
2017-10-28T00:21:17.933Z,59.64
2017-10-28T00:21:58.380Z,59.77
2017-10-28T00:22:38.832Z,59.83
2017-10-28T00:23:19.284Z,59.83
2017-10-28T00:23:59.756Z,59.55
2017-10-28T00:24:40.222Z,59.74
2017-10-28T00:25:20.682Z,59.55
2017-10-28T00:26:01.143Z,59.74
2017-10-28T00:26:41.590Z,59.55
2017-10-28T00:27:22.051Z,59.48
2017-10-28T00:28:02.505Z,59.58
2017-10-28T00:28:42.956Z,59.45
2017-10-28T00:29:23.411Z,59.45
2017-10-28T00:30:03.879Z,59.48
2017-10-28T00:30:44.332Z,59.48
2017-10-28T00:31:24.795Z,59.93
2017-10-28T00:32:05.251Z,59.86
2017-10-28T00:32:45.691Z,59.55
2017-10-28T00:33:26.151Z,59.45
2017-10-28T00:34:06.597Z,59.55
2017-10-28T00:34:47.053Z,59.55
2017-10-28T00:35:27.508Z,59.64
2017-10-28T00:36:07.964Z,59.64
2017-10-28T00:36:48.409Z,59.55
2017-10-28T00:37:28.869Z,59.77
2017-10-28T00:38:09.320Z,59.93
2017-10-28T00:38:49.774Z,59.83
2017-10-28T00:39:30.212Z,59.83
2017-10-28T00:40:10.662Z,59.35
2017-10-28T00:40:51.123Z,59.35
2017-10-28T00:41:31.578Z,59.55
2017-10-28T00:42:12.028Z,59.64
2017-10-28T00:42:52.497Z,59.74
2017-10-28T00:43:32.947Z,59.93
2017-10-28T00:44:13.407Z,60.03
2017-10-28T00:44:53.848Z,59.64
2017-10-28T00:45:34.316Z,59.55
2017-10-28T00:46:14.756Z,59.55
2017-10-28T00:46:55.204Z,59.74
2017-10-28T00:47:35.646Z,60.51
2017-10-28T00:48:16.110Z,59.45
2017-10-28T00:48:56.554Z,59.64
2017-10-28T00:49:37.016Z,59.55
2017-10-28T00:50:17.466Z,59.55
2017-10-28T00:50:57.927Z,59.83
2017-10-28T00:51:38.383Z,59.74
2017-10-28T00:52:18.839Z,59.83
2017-10-28T00:52:59.319Z,59.83
2017-10-28T00:53:39.746Z,60.13
2017-10-28T00:54:20.197Z,59.83
2017-10-28T00:55:00.654Z,60.03
2017-10-28T00:55:41.110Z,60.03
2017-10-28T00:56:21.561Z,60.03
2017-10-28T00:57:02.025Z,60.13
2017-10-28T00:57:42.484Z,60.22
2017-10-28T00:58:22.932Z,60.03
2017-10-28T00:59:03.377Z,60.13
2017-10-28T00:59:43.825Z,60.13
2017-10-28T01:00:24.268Z,60.03
2017-10-28T01:01:04.726Z,60.03
2017-10-28T01:01:45.175Z,60.13
2017-10-28T01:02:25.635Z,60.13
2017-10-28T01:03:06.074Z,60.03
2017-10-28T01:03:46.528Z,60.22
2017-10-28T01:04:26.977Z,60.13
2017-10-28T01:05:07.434Z,60.03
2017-10-28T01:05:47.883Z,60.13
2017-10-28T01:06:28.342Z,60.22
2017-10-28T01:07:08.787Z,59.83
2017-10-28T01:07:49.232Z,60.13
2017-10-28T01:08:29.685Z,60.03
2017-10-28T01:09:10.144Z,59.93
2017-10-28T01:09:50.593Z,60.13
2017-10-28T01:10:31.056Z,59.93
2017-10-28T01:11:11.509Z,59.93
2017-10-28T01:11:51.959Z,59.83
2017-10-28T01:12:32.416Z,59.93
2017-10-28T01:13:12.864Z,60.03
2017-10-28T01:13:53.311Z,60.03
2017-10-28T01:14:33.770Z,60.03
2017-10-28T01:15:14.219Z,59.93
2017-10-28T01:15:54.677Z,59.93
2017-10-28T01:16:35.132Z,60.22
2017-10-28T01:17:15.596Z,59.93
2017-10-28T01:17:56.046Z,59.93
2017-10-28T01:18:36.495Z,59.93
2017-10-28T01:19:16.950Z,59.93
2017-10-28T01:19:57.434Z,59.93
2017-10-28T01:20:37.893Z,59.93
2017-10-28T01:21:18.334Z,59.83
2017-10-28T01:21:58.800Z,60.03
2017-10-28T01:22:39.256Z,59.83
2017-10-28T01:23:19.709Z,59.83
2017-10-28T01:24:00.162Z,60.03
2017-10-28T01:24:40.614Z,60.03
2017-10-28T01:25:21.059Z,60.03
2017-10-28T01:26:01.529Z,60.03
2017-10-28T01:26:41.979Z,60.13
2017-10-28T01:27:22.423Z,60.13
2017-10-28T01:28:02.873Z,60.13
2017-10-28T01:28:43.313Z,60.03
2017-10-28T01:29:23.766Z,60.13
2017-10-28T01:30:04.227Z,60.03
2017-10-28T01:30:44.682Z,60.13
2017-10-28T01:31:25.140Z,60.13
2017-10-28T01:32:05.614Z,60.03
2017-10-28T01:32:46.065Z,60.03
2017-10-28T01:33:26.522Z,60.03
2017-10-28T01:34:06.981Z,60.03
2017-10-28T01:34:47.435Z,60.03
2017-10-28T01:35:27.885Z,60.03
2017-10-28T01:36:08.389Z,60.03
2017-10-28T01:36:48.796Z,60.03
2017-10-28T01:37:29.233Z,60.03
2017-10-28T01:38:09.689Z,60.03
2017-10-28T01:38:50.135Z,59.93
2017-10-28T01:39:30.578Z,60.03
2017-10-28T01:40:11.030Z,59.93
2017-10-28T01:40:51.471Z,60.03
2017-10-28T01:41:31.917Z,59.93
2017-10-28T01:42:12.388Z,60.03
2017-10-28T01:42:52.842Z,60.03
2017-10-28T01:43:33.279Z,60.03
2017-10-28T01:44:13.738Z,60.13
2017-10-28T01:44:54.192Z,60.03
2017-10-28T01:45:34.640Z,60.13
2017-10-28T01:46:15.113Z,60.03
2017-10-28T01:46:55.574Z,59.93
2017-10-28T01:47:36.033Z,59.74
2017-10-28T01:48:16.481Z,60.03
2017-10-28T01:48:56.938Z,60.03
2017-10-28T01:49:37.390Z,60.03
2017-10-28T01:50:17.844Z,60.03
2017-10-28T01:50:58.309Z,60.13
2017-10-28T01:51:38.772Z,60.13
2017-10-28T01:52:19.230Z,60.13
2017-10-28T01:52:59.670Z,60.13
2017-10-28T01:53:40.130Z,60.13
2017-10-28T01:54:20.579Z,60.13
2017-10-28T01:55:01.043Z,60.13
2017-10-28T01:55:41.497Z,60.22
2017-10-28T01:56:21.963Z,60.31
2017-10-28T01:57:02.426Z,60.31
2017-10-28T01:57:42.898Z,60.41
2017-10-28T01:58:23.350Z,60.71
2017-10-28T01:59:03.792Z,60.51
2017-10-28T01:59:44.262Z,60.61
2017-10-28T02:00:24.709Z,60.61
2017-10-28T02:01:05.169Z,60.31
2017-10-28T02:01:45.643Z,60.41
2017-10-28T02:02:26.073Z,60.41
2017-10-28T02:03:06.525Z,60.51
2017-10-28T02:03:46.980Z,60.61
2017-10-28T02:04:27.437Z,60.61
2017-10-28T02:05:07.885Z,60.61
2017-10-28T02:05:48.337Z,60.71
2017-10-28T02:06:28.800Z,60.61
2017-10-28T02:07:09.261Z,60.51
2017-10-28T02:07:49.721Z,60.71
2017-10-28T02:08:30.162Z,60.61
2017-10-28T02:09:10.618Z,60.41
2017-10-28T02:09:51.063Z,60.41
2017-10-28T02:10:31.538Z,60.41
2017-10-28T02:11:11.972Z,60.41
2017-10-28T02:11:52.421Z,60.31
2017-10-28T02:12:32.892Z,60.61
2017-10-28T02:13:13.351Z,60.8
2017-10-28T02:13:53.813Z,60.51
2017-10-28T02:14:34.260Z,60.51
2017-10-28T02:15:14.720Z,60.61
2017-10-28T02:15:55.170Z,60.71
2017-10-28T02:16:35.618Z,60.51
2017-10-28T02:17:16.083Z,60.61
2017-10-28T02:17:56.548Z,60.71
2017-10-28T02:18:36.981Z,60.71
2017-10-28T02:19:17.430Z,60.71
2017-10-28T02:19:57.891Z,60.51
2017-10-28T02:20:38.339Z,60.68
2017-10-28T02:21:18.789Z,60.51
2017-10-28T02:21:59.258Z,60.71
2017-10-28T02:22:39.700Z,60.71
2017-10-28T02:23:20.157Z,60.61
2017-10-28T02:24:00.625Z,60.71
2017-10-28T02:24:41.083Z,60.71
2017-10-28T02:25:21.539Z,60.61
2017-10-28T02:26:02.018Z,60.61
2017-10-28T02:26:42.465Z,60.31
2017-10-28T02:27:22.911Z,60.51
2017-10-28T02:28:03.372Z,60.51
2017-10-28T02:28:43.821Z,60.41
2017-10-28T02:29:24.281Z,60.41
2017-10-28T02:30:04.736Z,60.61
2017-10-28T02:30:45.189Z,60.31
2017-10-28T02:31:25.646Z,60.61
2017-10-28T02:32:06.089Z,60.41
2017-10-28T02:32:46.548Z,60.51
2017-10-28T02:33:27.010Z,60.61
2017-10-28T02:34:07.505Z,60.71
2017-10-28T02:34:47.943Z,60.61
2017-10-28T02:35:28.397Z,60.61
2017-10-28T02:36:08.841Z,60.31
2017-10-28T02:36:49.294Z,60.51
2017-10-28T02:37:29.749Z,60.51
2017-10-28T02:38:10.194Z,60.61
2017-10-28T02:38:50.648Z,60.61
2017-10-28T02:39:31.116Z,60.41
2017-10-28T02:40:11.564Z,60.61
2017-10-28T02:40:52.009Z,60.51
2017-10-28T02:41:32.456Z,60.61
2017-10-28T02:42:12.908Z,60.51
2017-10-28T02:42:53.358Z,60.61
2017-10-28T02:43:33.808Z,60.61
2017-10-28T02:44:14.257Z,60.71
2017-10-28T02:44:54.715Z,60.61
2017-10-28T02:45:35.169Z,60.71
2017-10-28T02:46:15.624Z,60.61
2017-10-28T02:46:56.078Z,60.71
2017-10-28T02:47:36.543Z,60.51
2017-10-28T02:48:17.037Z,60.61
2017-10-28T02:48:57.494Z,60.71
2017-10-28T02:49:37.941Z,60.71
2017-10-28T02:50:18.407Z,60.51
2017-10-28T02:50:58.844Z,60.71
2017-10-28T02:51:39.298Z,60.71
2017-10-28T02:52:19.763Z,60.71
2017-10-28T02:53:00.207Z,60.61
2017-10-28T02:53:40.664Z,60.61
2017-10-28T02:54:21.125Z,60.51
2017-10-28T02:55:01.581Z,60.61
2017-10-28T02:55:42.032Z,60.51
2017-10-28T02:56:22.490Z,60.41
2017-10-28T02:57:02.932Z,60.51
2017-10-28T02:57:43.389Z,60.61
2017-10-28T02:58:23.845Z,60.51
2017-10-28T02:59:04.298Z,60.41
2017-10-28T02:59:44.752Z,60.61
2017-10-28T03:00:25.215Z,60.41
2017-10-28T03:01:05.680Z,60.31
2017-10-28T03:01:46.131Z,60.31
2017-10-28T03:02:26.587Z,60.51
2017-10-28T03:03:07.058Z,60.71
2017-10-28T03:03:47.498Z,60.51
2017-10-28T03:04:28.045Z,60.51
2017-10-28T03:05:08.513Z,60.61
2017-10-28T03:05:49.005Z,60.51
2017-10-28T03:06:29.447Z,60.58
2017-10-28T03:07:09.899Z,60.51
2017-10-28T03:07:50.399Z,60.71
2017-10-28T03:08:30.852Z,60.61
2017-10-28T03:09:11.306Z,60.71
2017-10-28T03:09:51.888Z,60.68
2017-10-28T03:10:32.328Z,60.38
2017-10-28T03:11:12.815Z,60.51
2017-10-28T03:11:53.264Z,60.68
2017-10-28T03:12:33.735Z,60.61
2017-10-28T03:13:14.291Z,60.38
2017-10-28T03:13:54.732Z,60.48
2017-10-28T03:14:35.265Z,60.28
2017-10-28T03:15:15.631Z,60.31
2017-10-28T03:15:56.092Z,60.38
2017-10-28T03:16:36.537Z,60.38
2017-10-28T03:17:16.992Z,60.38
2017-10-28T03:17:57.435Z,60.61
2017-10-28T03:18:37.887Z,60.38
2017-10-28T03:19:18.336Z,60.38
2017-10-28T03:19:58.805Z,60.38
2017-10-28T03:20:39.257Z,60.41
2017-10-28T03:21:19.697Z,60.38
2017-10-28T03:22:00.151Z,60.28
2017-10-28T03:22:40.598Z,60.48
2017-10-28T03:23:21.052Z,60.51
2017-10-28T03:24:01.507Z,60.71
2017-10-28T03:24:41.964Z,60.48
2017-10-28T03:25:22.410Z,60.58
2017-10-28T03:26:02.872Z,60.71
2017-10-28T03:26:43.320Z,60.58
2017-10-28T03:27:23.771Z,60.68
2017-10-28T03:28:04.233Z,60.48
2017-10-28T03:28:44.680Z,60.58
2017-10-28T03:29:25.147Z,60.38
2017-10-28T03:30:05.601Z,60.68
2017-10-28T03:30:46.059Z,60.68
2017-10-28T03:31:26.511Z,60.48
2017-10-28T03:32:08.506Z,60.68
2017-10-28T03:32:48.987Z,60.68
2017-10-28T03:33:29.437Z,60.48
2017-10-28T03:34:09.905Z,60.48
2017-10-28T03:34:50.363Z,60.48
2017-10-28T03:35:30.818Z,60.48
2017-10-28T03:36:11.283Z,60.68
2017-10-28T03:36:51.741Z,60.68
2017-10-28T03:37:32.222Z,60.38
2017-10-28T03:38:12.655Z,60.68
2017-10-28T03:38:53.104Z,60.48
2017-10-28T03:39:33.550Z,60.48
2017-10-28T03:40:14.000Z,60.48
2017-10-28T03:40:54.465Z,60.48
2017-10-28T03:41:34.904Z,60.58
2017-10-28T03:42:15.362Z,60.96
2017-10-28T03:42:55.805Z,60.68
2017-10-28T03:43:36.260Z,61.16
2017-10-28T03:44:16.720Z,60.96
2017-10-28T03:44:57.169Z,60.86
2017-10-28T03:45:37.624Z,60.96
2017-10-28T03:46:18.076Z,60.86
2017-10-28T03:46:58.524Z,60.77
2017-10-28T03:47:38.979Z,60.58
2017-10-28T03:48:19.434Z,60.86
2017-10-28T03:48:59.876Z,60.68
2017-10-28T03:49:40.336Z,60.68
2017-10-28T03:50:20.785Z,60.96
2017-10-28T03:51:01.239Z,60.86
2017-10-28T03:51:41.682Z,61.16
2017-10-28T03:52:22.110Z,60.86
2017-10-28T03:53:02.561Z,60.86
2017-10-28T03:53:43.021Z,61.06
2017-10-28T03:54:23.474Z,61.06
2017-10-28T03:55:03.949Z,61.06
2017-10-28T03:55:44.399Z,60.86
2017-10-28T03:56:24.852Z,60.77
2017-10-28T03:57:05.307Z,61.16
2017-10-28T03:57:45.748Z,60.96
2017-10-28T03:58:26.204Z,60.96
2017-10-28T03:59:06.659Z,60.96
2017-10-28T03:59:47.095Z,61.06
2017-10-28T04:00:27.545Z,60.96
2017-10-28T04:01:07.997Z,60.96
2017-10-28T04:01:48.431Z,60.86
2017-10-28T04:02:28.917Z,60.96
2017-10-28T04:03:09.374Z,60.86
2017-10-28T04:03:49.835Z,60.86
2017-10-28T04:04:30.312Z,60.68
2017-10-28T04:05:10.749Z,60.99
2017-10-28T04:05:51.200Z,60.89
2017-10-28T04:06:31.654Z,60.48
2017-10-28T04:07:12.125Z,60.48
2017-10-28T04:07:52.576Z,60.48
2017-10-28T04:08:33.037Z,60.68
2017-10-28T04:09:13.487Z,60.51
2017-10-28T04:09:53.951Z,60.71
2017-10-28T04:10:34.392Z,60.61
2017-10-28T04:11:14.840Z,60.41
2017-10-28T04:11:55.287Z,60.51
2017-10-28T04:12:35.736Z,60.71
2017-10-28T04:13:16.189Z,60.31
2017-10-28T04:13:56.656Z,60.61
2017-10-28T04:14:37.087Z,60.61
2017-10-28T04:15:17.545Z,60.31
2017-10-28T04:15:58.013Z,60.41
2017-10-28T04:16:38.469Z,60.13
2017-10-28T04:17:18.931Z,60.22
2017-10-28T04:17:59.370Z,60.03
2017-10-28T04:18:39.826Z,60.13
2017-10-28T04:19:20.271Z,59.74
2017-10-28T04:20:00.731Z,60.03
2017-10-28T04:20:41.186Z,60.03
2017-10-28T04:21:21.637Z,60.03
2017-10-28T04:22:02.093Z,59.93
2017-10-28T04:22:42.538Z,59.93
2017-10-28T04:23:22.998Z,60.03
2017-10-28T04:24:03.452Z,59.83
2017-10-28T04:24:43.898Z,59.93
2017-10-28T04:25:24.360Z,60.22
2017-10-28T04:26:04.807Z,60.03
2017-10-28T04:26:45.255Z,60.13
2017-10-28T04:27:25.695Z,60.13
2017-10-28T04:28:06.156Z,60.03
2017-10-28T04:28:46.627Z,60.13
2017-10-28T04:29:27.090Z,60.13
2017-10-28T04:30:07.539Z,60.03
2017-10-28T04:30:47.994Z,60.22
2017-10-28T04:31:28.443Z,60.22
2017-10-28T04:32:08.906Z,60.13
2017-10-28T04:32:49.349Z,59.83
2017-10-28T04:33:29.804Z,59.77
2017-10-28T04:34:10.261Z,59.64
2017-10-28T04:34:50.723Z,59.67
2017-10-28T04:35:31.181Z,59.74
2017-10-28T04:36:11.642Z,59.58
2017-10-28T04:36:52.096Z,59.55
2017-10-28T04:37:32.538Z,59.35
2017-10-28T04:38:13.009Z,59.64
2017-10-28T04:38:53.441Z,59.55
2017-10-28T04:39:33.900Z,59.67
2017-10-28T04:40:14.358Z,59.45
2017-10-28T04:40:54.830Z,59.74
2017-10-28T04:41:35.286Z,60.61
2017-10-28T04:42:15.747Z,59.74
2017-10-28T04:42:56.208Z,60.22
2017-10-28T04:43:36.660Z,60.06
2017-10-28T04:44:17.104Z,60.73
2017-10-28T04:44:57.565Z,60.25
2017-10-28T04:45:38.020Z,59.74
2017-10-28T04:46:18.476Z,59.64
2017-10-28T04:46:58.934Z,59.86
2017-10-28T04:47:39.387Z,59.93
2017-10-28T04:48:19.839Z,59.74
2017-10-28T04:49:00.290Z,59.93
2017-10-28T04:49:40.738Z,59.86
2017-10-28T04:50:21.202Z,59.77
2017-10-28T04:51:01.639Z,59.67
2017-10-28T04:51:42.091Z,59.74
2017-10-28T04:52:22.555Z,59.64
2017-10-28T04:53:03.003Z,59.74
2017-10-28T04:53:43.444Z,59.96
2017-10-28T04:54:23.899Z,59.93
2017-10-28T04:55:04.342Z,59.67
2017-10-28T04:55:44.787Z,59.96
2017-10-28T04:56:25.246Z,59.77
2017-10-28T04:57:05.698Z,59.93
2017-10-28T04:57:46.154Z,59.77
2017-10-28T04:58:26.604Z,59.48
2017-10-28T04:59:07.056Z,59.77
2017-10-28T04:59:47.498Z,59.74
2017-10-28T05:00:27.959Z,59.67
2017-10-28T05:01:08.409Z,59.64
2017-10-28T05:01:48.854Z,59.77
2017-10-28T05:02:29.322Z,59.67
2017-10-28T05:03:09.789Z,59.77
2017-10-28T05:03:50.244Z,59.48
2017-10-28T05:04:30.709Z,59.38
2017-10-28T05:05:11.145Z,59.86
2017-10-28T05:05:51.594Z,59.55
2017-10-28T05:06:32.042Z,59.86
2017-10-28T05:07:12.489Z,59.38
2017-10-28T05:07:52.940Z,59.38
2017-10-28T05:08:33.397Z,59.58
2017-10-28T05:09:13.850Z,59.67
2017-10-28T05:09:54.311Z,59.77
2017-10-28T05:10:34.769Z,60.16
2017-10-28T05:11:15.229Z,59.77
2017-10-28T05:11:55.679Z,59.77
2017-10-28T05:12:36.132Z,59.86
2017-10-28T05:13:16.584Z,59.67
2017-10-28T05:13:57.035Z,60.06
2017-10-28T05:14:37.492Z,59.67
2017-10-28T05:15:17.946Z,59.77
2017-10-28T05:15:58.411Z,59.77
2017-10-28T05:16:38.870Z,59.86
2017-10-28T05:17:19.323Z,59.77
2017-10-28T05:17:59.785Z,60.06
2017-10-28T05:18:40.239Z,59.86
2017-10-28T05:19:20.708Z,59.67
2017-10-28T05:20:01.144Z,59.77
2017-10-28T05:20:41.616Z,59.38
2017-10-28T05:21:22.065Z,59.77
2017-10-28T05:22:02.518Z,59.77
2017-10-28T05:22:42.964Z,59.48
2017-10-28T05:23:23.415Z,59.58
2017-10-28T05:24:03.872Z,59.86
2017-10-28T05:24:44.327Z,59.48
2017-10-28T05:25:24.775Z,59.45
2017-10-28T05:26:05.227Z,59.28
2017-10-28T05:26:45.701Z,59.58
2017-10-28T05:27:26.163Z,59.74
2017-10-28T05:28:06.623Z,59.77
2017-10-28T05:28:47.081Z,60.06
2017-10-28T05:29:27.542Z,59.77
2017-10-28T05:30:07.992Z,59.58
2017-10-28T05:30:48.438Z,59.38
2017-10-28T05:31:28.889Z,59.86
2017-10-28T05:32:09.345Z,59.48
2017-10-28T05:32:49.810Z,59.77
2017-10-28T05:33:30.273Z,59.86
2017-10-28T05:34:10.723Z,59.48
2017-10-28T05:34:51.177Z,59.77
2017-10-28T05:35:31.949Z,59.86
2017-10-28T05:36:12.402Z,59.86
2017-10-28T05:36:52.856Z,60.06
2017-10-28T05:37:33.311Z,60.06
2017-10-28T05:38:13.770Z,59.28
2017-10-28T05:38:54.235Z,59.77
2017-10-28T05:39:34.686Z,59.96
2017-10-28T05:40:15.155Z,59.67
2017-10-28T05:40:56.448Z,59.58
2017-10-28T05:41:36.892Z,59.67
2017-10-28T05:42:17.351Z,59.96
2017-10-28T05:42:57.806Z,59.86
2017-10-28T05:43:38.256Z,59.67
2017-10-28T05:44:18.717Z,59.67
2017-10-28T05:44:59.178Z,59.77
2017-10-28T05:45:39.615Z,59.77
2017-10-28T05:46:20.068Z,59.58
2017-10-28T05:47:00.521Z,59.67
2017-10-28T05:47:41.013Z,59.48
2017-10-28T05:48:21.469Z,59.58
2017-10-28T05:49:01.932Z,59.58
2017-10-28T05:49:42.379Z,59.58
2017-10-28T05:50:22.834Z,59.58
2017-10-28T05:51:03.287Z,59.77
2017-10-28T05:51:43.752Z,59.58
2017-10-28T05:52:24.185Z,59.86
2017-10-28T05:53:04.629Z,59.67
2017-10-28T05:53:45.094Z,59.58
2017-10-28T05:54:25.544Z,59.58
2017-10-28T05:55:05.996Z,59.58
2017-10-28T05:55:46.445Z,59.58
2017-10-28T05:56:26.901Z,59.48
2017-10-28T05:57:07.352Z,59.58
2017-10-28T05:57:47.810Z,59.48
2017-10-28T05:58:28.269Z,59.77
2017-10-28T05:59:08.719Z,59.67
2017-10-28T05:59:49.185Z,59.55
2017-10-28T06:00:29.631Z,59.77
2017-10-28T06:01:10.093Z,59.48
2017-10-28T06:01:50.551Z,59.67
2017-10-28T06:02:30.998Z,59.86
2017-10-28T06:03:11.459Z,59.67
2017-10-28T06:03:51.909Z,59.48
2017-10-28T06:04:32.368Z,59.48
2017-10-28T06:05:12.826Z,59.48
2017-10-28T06:05:53.295Z,59.58
2017-10-28T06:06:33.747Z,59.28
2017-10-28T06:07:14.210Z,59.58
2017-10-28T06:07:54.654Z,59.58
2017-10-28T06:08:35.102Z,59.67
2017-10-28T06:09:15.558Z,59.58
2017-10-28T06:09:56.011Z,59.58
2017-10-28T06:10:36.451Z,59.77
2017-10-28T06:11:16.893Z,59.58
2017-10-28T06:11:57.336Z,59.77
2017-10-28T06:12:37.781Z,59.67
2017-10-28T06:13:18.236Z,59.67
2017-10-28T06:13:58.689Z,59.67
2017-10-28T06:14:39.129Z,59.67
2017-10-28T06:15:19.579Z,59.67
2017-10-28T06:16:00.144Z,59.67
2017-10-28T06:16:40.589Z,59.67
2017-10-28T06:17:21.039Z,59.96
2017-10-28T06:18:01.501Z,59.96
2017-10-28T06:18:41.952Z,60.16
2017-10-28T06:19:22.399Z,59.58
2017-10-28T06:20:02.854Z,59.58
2017-10-28T06:20:43.294Z,59.28
2017-10-28T06:21:23.762Z,59.67
2017-10-28T06:22:04.203Z,59.67
2017-10-28T06:22:44.675Z,59.67
2017-10-28T06:23:25.173Z,59.28
2017-10-28T06:24:05.540Z,60.06
2017-10-28T06:24:46.001Z,59.96
2017-10-28T06:25:26.459Z,59.67
2017-10-28T06:26:06.939Z,59.67
2017-10-28T06:26:47.379Z,59.67
2017-10-28T06:27:27.834Z,59.86
2017-10-28T06:28:08.281Z,59.86
2017-10-28T06:28:48.730Z,60.06
2017-10-28T06:29:29.191Z,60.06
2017-10-28T06:30:09.630Z,60.06
2017-10-28T06:30:50.081Z,59.86
2017-10-28T06:31:30.526Z,59.86
2017-10-28T06:32:10.981Z,59.96
2017-10-28T06:32:51.446Z,60.06
2017-10-28T06:33:31.879Z,59.86
2017-10-28T06:34:12.326Z,59.96
2017-10-28T06:34:52.783Z,59.96
2017-10-28T06:35:33.287Z,59.86
2017-10-28T06:36:13.764Z,59.86
2017-10-28T06:36:54.179Z,59.96
2017-10-28T06:37:34.621Z,59.96
2017-10-28T06:38:15.068Z,59.86
2017-10-28T06:38:56.160Z,60.06
2017-10-28T06:39:36.636Z,60.06
2017-10-28T06:40:17.094Z,59.96
2017-10-28T06:40:57.534Z,60.16
2017-10-28T06:41:37.976Z,59.86
2017-10-28T06:42:18.438Z,59.58
2017-10-28T06:42:58.868Z,59.86
2017-10-28T06:43:39.302Z,59.86
2017-10-28T06:44:19.759Z,59.58
2017-10-28T06:45:00.216Z,59.67
2017-10-28T06:45:40.680Z,59.09
2017-10-28T06:46:21.148Z,60.06
2017-10-28T06:47:01.611Z,60.16
2017-10-28T06:47:42.037Z,59.86
2017-10-28T06:48:22.503Z,59.77
2017-10-28T06:49:02.933Z,59.58
2017-10-28T06:49:43.391Z,60.06
2017-10-28T06:50:23.852Z,59.96
2017-10-28T06:51:04.299Z,59.86
2017-10-28T06:51:44.758Z,59.86
2017-10-28T06:52:25.201Z,59.96
2017-10-28T06:53:05.652Z,59.67
2017-10-28T06:53:46.115Z,59.86
2017-10-28T06:54:26.546Z,59.86
2017-10-28T06:55:07.011Z,59.38
2017-10-28T06:55:47.473Z,59.67
2017-10-28T06:56:27.921Z,59.48
2017-10-28T06:57:08.455Z,59.67
2017-10-28T06:57:48.816Z,59.58
2017-10-28T06:58:29.274Z,59.38
2017-10-28T06:59:09.731Z,59.67
2017-10-28T06:59:50.184Z,59.48
2017-10-28T07:00:30.636Z,59.67
2017-10-28T07:01:11.081Z,59.48
2017-10-28T07:01:51.528Z,59.38
2017-10-28T07:02:31.973Z,59.38
2017-10-28T07:03:12.414Z,59.09
2017-10-28T07:03:52.863Z,59.19
2017-10-28T07:04:33.329Z,59.28
2017-10-28T07:05:13.770Z,58.9
2017-10-28T07:05:54.231Z,58.9
2017-10-28T07:06:34.700Z,59.41
2017-10-28T07:07:15.154Z,59.19
2017-10-28T07:07:55.604Z,59.28
2017-10-28T07:08:36.057Z,59.19
2017-10-28T07:09:16.508Z,59.12
2017-10-28T07:09:56.972Z,59.22
2017-10-28T07:10:37.442Z,59.09
2017-10-28T07:11:17.936Z,59.19
2017-10-28T07:11:58.398Z,58.93
2017-10-28T07:12:38.824Z,59.12
2017-10-28T07:13:19.275Z,58.83
2017-10-28T07:13:59.729Z,59.12
2017-10-28T07:14:40.186Z,59.12
2017-10-28T07:15:20.647Z,58.93
2017-10-28T07:16:01.104Z,59.12
2017-10-28T07:16:41.559Z,58.93
2017-10-28T07:17:22.000Z,59.12
2017-10-28T07:18:02.450Z,58.9
2017-10-28T07:18:42.919Z,58.73
2017-10-28T07:19:23.369Z,59
2017-10-28T07:20:03.814Z,58.83
2017-10-28T07:20:44.314Z,58.9
2017-10-28T07:21:24.773Z,59
2017-10-28T07:22:05.221Z,58.73
2017-10-28T07:22:45.667Z,59.02
2017-10-28T07:23:26.118Z,58.73
2017-10-28T07:24:06.578Z,59.02
2017-10-28T07:24:47.021Z,58.83
2017-10-28T07:25:27.491Z,58.93
2017-10-28T07:26:07.979Z,59.02
2017-10-28T07:26:48.434Z,58.73
2017-10-28T07:27:28.906Z,58.7
2017-10-28T07:28:09.357Z,58.73
2017-10-28T07:28:49.814Z,58.9
2017-10-28T07:29:30.257Z,58.9
2017-10-28T07:30:10.709Z,59.09
2017-10-28T07:30:51.184Z,58.8
2017-10-28T07:31:31.642Z,59.12
2017-10-28T07:32:12.094Z,59
2017-10-28T07:32:52.541Z,59.12
2017-10-28T07:33:32.987Z,59.19
2017-10-28T07:34:13.439Z,59.12
2017-10-28T07:34:53.908Z,59.09
2017-10-28T07:37:11.793Z,59.31
2017-10-28T07:37:52.252Z,59.28
2017-10-28T07:38:32.705Z,59.22
2017-10-28T07:39:13.142Z,59.28
2017-10-28T07:39:53.591Z,59.12
2017-10-28T07:40:34.046Z,59.09
2017-10-28T07:41:14.496Z,59.09
2017-10-28T07:41:54.947Z,59.09
2017-10-28T07:42:35.411Z,59.09
2017-10-28T07:43:15.866Z,59
2017-10-28T07:43:56.321Z,59.09
2017-10-28T07:44:36.788Z,59.09
2017-10-28T07:45:17.245Z,59.09
2017-10-28T07:45:57.713Z,59.09
2017-10-28T07:46:38.147Z,59.09
2017-10-28T07:47:18.589Z,59.19
2017-10-28T07:47:59.051Z,59.09
2017-10-28T07:48:39.502Z,59.19
2017-10-28T07:49:19.955Z,59.19
2017-10-28T07:50:00.413Z,59.19
2017-10-28T07:50:40.867Z,59
2017-10-28T07:51:21.316Z,59
2017-10-28T07:52:01.779Z,59
2017-10-28T07:52:42.221Z,59.02
2017-10-28T07:53:22.687Z,59
2017-10-28T07:54:03.131Z,59.02
2017-10-28T07:54:43.586Z,59.02
2017-10-28T07:55:24.049Z,59.02
2017-10-28T07:56:04.508Z,59.09
2017-10-28T07:56:44.972Z,59.09
2017-10-28T07:57:25.452Z,58.9
2017-10-28T07:58:05.911Z,59.12
2017-10-28T07:58:46.376Z,59.09
2017-10-28T07:59:26.838Z,59.19
2017-10-28T08:00:07.300Z,59
2017-10-28T08:00:47.753Z,59
2017-10-28T08:01:28.206Z,59.22
2017-10-28T08:02:08.668Z,59.19
2017-10-28T08:02:49.129Z,59.22
2017-10-28T08:03:29.587Z,59.22
2017-10-28T08:04:10.043Z,59.12
2017-10-28T08:04:50.505Z,59.02
2017-10-28T08:05:30.955Z,59.12
2017-10-28T08:06:11.413Z,59
2017-10-28T08:06:51.873Z,59
2017-10-28T08:07:32.324Z,59.12
2017-10-28T08:08:12.794Z,59.12
2017-10-28T08:08:53.270Z,59.28
2017-10-28T08:09:33.714Z,59.12
2017-10-28T08:10:14.176Z,59.41
2017-10-28T08:10:54.623Z,59.22
2017-10-28T08:11:35.070Z,58.93
2017-10-28T08:12:15.525Z,58.7
2017-10-28T08:12:55.975Z,59.31
2017-10-28T08:13:36.418Z,59.31
2017-10-28T08:14:16.860Z,59.28
2017-10-28T08:14:57.309Z,58.93
2017-10-28T08:15:37.756Z,59.09
2017-10-28T08:16:18.228Z,59.02
2017-10-28T08:16:58.679Z,59.02
2017-10-28T08:17:39.140Z,59.12
2017-10-28T08:18:19.590Z,59
2017-10-28T08:19:00.049Z,59.02
2017-10-28T08:19:40.514Z,59.22
2017-10-28T08:20:20.956Z,59.22
2017-10-28T08:21:01.418Z,59.22
2017-10-28T08:21:41.858Z,59.12
2017-10-28T08:22:22.326Z,58.73
2017-10-28T08:23:02.785Z,58.83
2017-10-28T08:23:43.237Z,59.28
2017-10-28T08:24:23.689Z,59.28
2017-10-28T08:25:04.143Z,59.22
2017-10-28T08:25:44.621Z,59.19
2017-10-28T08:26:25.073Z,59.38
2017-10-28T08:27:05.526Z,59.48
2017-10-28T08:27:45.966Z,59.51
2017-10-28T08:28:26.414Z,59.19
2017-10-28T08:29:06.865Z,59.41
2017-10-28T08:29:47.323Z,59.41
2017-10-28T08:30:27.788Z,59.6
2017-10-28T08:31:08.256Z,59.51
2017-10-28T08:31:48.709Z,59.51
2017-10-28T08:32:29.165Z,59.51
2017-10-28T08:33:09.616Z,59.6
2017-10-28T08:33:50.084Z,59.48
2017-10-28T08:34:30.553Z,59.67
2017-10-28T08:35:11.008Z,59.58
2017-10-28T08:35:51.492Z,59.64
2017-10-28T08:36:31.937Z,59.8
2017-10-28T08:37:12.373Z,59.87
2017-10-28T08:37:52.836Z,59.84
2017-10-28T08:38:33.308Z,59.91
2017-10-28T08:39:13.805Z,59.97
2017-10-28T08:39:54.243Z,60.33
2017-10-28T08:40:34.695Z,60.59
2017-10-28T08:41:15.156Z,61.43
2017-10-28T08:41:55.602Z,62.13
2017-10-28T08:42:36.062Z,62.71
2017-10-28T08:43:16.526Z,62.96
2017-10-28T08:43:56.973Z,63.54